createdAt,value
2023-02-17T00:01:33.376Z,100080.22
2023-02-17T00:04:00.920Z,100046.97
2023-02-17T00:06:30.317Z,100076.66
2023-02-17T00:08:58.132Z,100071.13
2023-02-17T00:11:25.807Z,100062.75
2023-02-17T00:13:55.259Z,100059.47
2023-02-17T00:16:25.194Z,100058.41
2023-02-17T00:19:00.644Z,100069.25
2023-02-17T00:21:32.817Z,100051.09
2023-02-17T00:24:00.244Z,100056.38
2023-02-17T00:26:27.502Z,100052.97
2023-02-17T00:28:54.818Z,100048.47
2023-02-17T00:31:23.315Z,100047.53
2023-02-17T00:33:54.641Z,100049.44
2023-02-17T00:36:21.746Z,100050.84
2023-02-17T00:38:49.583Z,100047.19
2023-02-17T00:41:19.908Z,100036.94
2023-02-17T00:43:48.039Z,100046.00
2023-02-17T00:46:17.151Z,100041.63
2023-02-17T00:48:45.639Z,100031.16
2023-02-17T00:51:12.886Z,100023.97
2023-02-17T00:53:40.028Z,100023.16
2023-02-17T00:56:07.809Z,100034.09
2023-02-17T00:58:35.833Z,100020.91
2023-02-17T01:01:03.378Z,100019.25
2023-02-17T01:03:31.314Z,100018.19
2023-02-17T01:05:58.462Z,100006.06
2023-02-17T01:08:26.051Z,100016.50
2023-02-17T01:10:53.693Z,100008.72
2023-02-17T01:13:23.423Z,100010.00
2023-02-17T01:15:52.800Z,99992.47
2023-02-17T01:18:23.975Z,100004.13
2023-02-17T01:20:51.604Z,99995.75
2023-02-17T01:23:18.483Z,99986.91
2023-02-17T01:25:47.095Z,99987.28
2023-02-17T01:28:19.739Z,99979.84
2023-02-17T01:30:47.406Z,99970.75
2023-02-17T01:33:14.409Z,99991.84
2023-02-17T01:35:41.787Z,99985.63
2023-02-17T01:38:08.525Z,99980.44
2023-02-17T01:40:35.366Z,99974.91
2023-02-17T01:43:02.148Z,99985.38
2023-02-17T01:45:37.185Z,99993.50
2023-02-17T01:48:14.540Z,99984.56
2023-02-17T01:50:49.206Z,99982.59
2023-02-17T01:53:22.032Z,99988.13
2023-02-17T01:55:49.944Z,99976.81
2023-02-17T01:58:20.135Z,99983.50
2023-02-17T02:00:49.799Z,99971.38
2023-02-17T02:03:19.899Z,99980.66
2023-02-17T02:05:47.413Z,99978.19
2023-02-17T02:08:15.276Z,99968.41
2023-02-17T02:10:42.222Z,99969.94
2023-02-17T02:13:09.503Z,99974.53
2023-02-17T02:15:43.412Z,99979.13
2023-02-17T02:18:35.266Z,99981.22
2023-02-17T02:21:08.077Z,99975.69
2023-02-17T02:24:00.339Z,99969.06
2023-02-17T02:26:45.499Z,99968.59
2023-02-17T02:29:42.982Z,99971.16
2023-02-17T02:32:40.381Z,99972.09
2023-02-17T02:35:34.727Z,99968.09
2023-02-17T02:38:30.410Z,99955.34
2023-02-17T02:41:05.198Z,99946.50
2023-02-17T02:43:32.677Z,99951.81
2023-02-17T02:45:59.537Z,99960.75
2023-02-17T02:48:27.562Z,99953.34
2023-02-17T02:51:12.595Z,99951.44
2023-02-17T02:54:05.764Z,99954.16
2023-02-17T02:56:52.692Z,99953.09
2023-02-17T02:59:42.823Z,99954.75
2023-02-17T03:02:29.965Z,99952.38
2023-02-17T03:05:09.480Z,99969.34
2023-02-17T03:08:05.799Z,99952.38
2023-02-17T03:10:32.823Z,99958.59
2023-02-17T03:13:02.207Z,99960.72
2023-02-17T03:15:33.742Z,99966.03
2023-02-17T03:18:02.757Z,99970.84
2023-02-17T03:20:34.793Z,99958.81
2023-02-17T03:23:03.400Z,99942.91
2023-02-17T03:25:30.411Z,99959.78
2023-02-17T03:27:57.499Z,99970.97
2023-02-17T03:30:24.982Z,99966.75
2023-02-17T03:32:52.102Z,99969.63
2023-02-17T03:35:20.681Z,99961.34
2023-02-17T03:37:48.254Z,99977.28
2023-02-17T03:40:15.118Z,99973.81
2023-02-17T03:42:42.182Z,99974.28
2023-02-17T03:45:09.445Z,99979.22
2023-02-17T03:47:36.586Z,99974.56
2023-02-17T03:50:03.866Z,99971.16
2023-02-17T03:52:30.800Z,99985.56
2023-02-17T03:54:57.564Z,99990.63
2023-02-17T03:57:24.445Z,99984.00
2023-02-17T03:59:51.233Z,99989.34
2023-02-17T04:02:18.041Z,99989.66
2023-02-17T04:04:44.958Z,99977.31
2023-02-17T04:07:11.976Z,99991.22
2023-02-17T04:09:38.741Z,99983.13
2023-02-17T04:12:05.885Z,99979.75
2023-02-17T04:14:32.711Z,99983.53
2023-02-17T04:16:59.672Z,99991.00
2023-02-17T04:19:26.532Z,99995.00
2023-02-17T04:21:53.547Z,99977.69
2023-02-17T04:24:20.320Z,99991.81
2023-02-17T04:26:47.276Z,99987.25
2023-02-17T04:29:14.260Z,99978.50
2023-02-17T04:31:41.239Z,99987.59
2023-02-17T04:34:08.168Z,99981.22
2023-02-17T04:36:35.438Z,99983.44
2023-02-17T04:39:02.293Z,99992.53
2023-02-17T04:41:29.154Z,99977.69
2023-02-17T04:43:56.085Z,99987.84
2023-02-17T04:46:23.320Z,99979.25
2023-02-17T04:48:50.079Z,99980.88
2023-02-17T04:51:17.132Z,99988.63
2023-02-17T04:53:43.975Z,99990.16
2023-02-17T04:56:11.188Z,100002.06
2023-02-17T04:58:38.028Z,99984.41
2023-02-17T05:01:05.204Z,100005.25
2023-02-17T05:03:32.158Z,100009.25
2023-02-17T05:05:59.059Z,99999.50
2023-02-17T05:08:25.934Z,100009.63
2023-02-17T05:10:53.323Z,100007.63
2023-02-17T05:13:20.424Z,100001.47
2023-02-17T05:15:47.662Z,100006.44
2023-02-17T05:18:14.534Z,99998.28
2023-02-17T05:20:42.227Z,100010.31
2023-02-17T05:23:09.014Z,100014.56
2023-02-17T05:25:35.864Z,100022.09
2023-02-17T05:28:02.776Z,100021.38
2023-02-17T05:30:29.730Z,99998.84
2023-02-17T05:32:56.684Z,100015.91
2023-02-17T05:35:24.802Z,100019.72
2023-02-17T05:37:51.574Z,100025.81
2023-02-17T05:40:18.691Z,100026.19
2023-02-17T05:42:45.572Z,100025.13
2023-02-17T05:45:12.714Z,100026.78
2023-02-17T05:47:39.509Z,100016.19
2023-02-17T05:50:07.129Z,100042.09
2023-02-17T05:52:34.080Z,100025.13
2023-02-17T05:55:01.109Z,100040.22
2023-02-17T05:57:27.905Z,100040.94
2023-02-17T05:59:55.024Z,100036.09
2023-02-17T06:02:22.029Z,100055.31
2023-02-17T06:04:49.090Z,100046.00
2023-02-17T06:07:16.029Z,100063.44
2023-02-17T06:09:43.178Z,100047.53
2023-02-17T06:12:10.016Z,100053.91
2023-02-17T06:14:36.998Z,100061.47
2023-02-17T06:17:04.136Z,100061.59
2023-02-17T06:19:31.465Z,100062.13
2023-02-17T06:21:58.280Z,100057.94
2023-02-17T06:24:25.634Z,100064.50
2023-02-17T06:26:52.563Z,100067.56
2023-02-17T06:29:19.535Z,100070.66
2023-02-17T06:31:49.663Z,100060.38
2023-02-17T06:34:16.706Z,100051.94
2023-02-17T06:36:43.543Z,100051.72
2023-02-17T06:39:10.577Z,100051.50
2023-02-17T06:41:37.529Z,100051.97
2023-02-17T06:44:04.878Z,100052.72
2023-02-17T06:46:31.856Z,100057.56
2023-02-17T06:49:00.159Z,100058.84
2023-02-17T06:51:27.886Z,100054.53
2023-02-17T06:53:55.633Z,100053.63
2023-02-17T06:56:22.634Z,100051.28
2023-02-17T06:58:49.581Z,100058.63
2023-02-17T07:01:18.416Z,100062.28
2023-02-17T07:03:45.655Z,100058.53
2023-02-17T07:06:12.591Z,100071.06
2023-02-17T07:08:39.441Z,100065.00
2023-02-17T07:11:11.818Z,100059.41
2023-02-17T07:13:38.878Z,100067.00
2023-02-17T07:16:06.506Z,100060.88
2023-02-17T07:18:33.977Z,100061.31
2023-02-17T07:21:01.043Z,100066.41
2023-02-17T07:23:27.910Z,100062.09
2023-02-17T07:25:54.698Z,100067.63
2023-02-17T07:28:21.607Z,100054.78
2023-02-17T07:30:48.519Z,100059.72
2023-02-17T07:33:15.472Z,100053.41
2023-02-17T07:35:46.096Z,100061.91
2023-02-17T07:38:13.553Z,100049.81
2023-02-17T07:40:40.503Z,100048.69
2023-02-17T07:43:07.431Z,100042.41
2023-02-17T07:45:34.725Z,100059.56
2023-02-17T07:48:01.651Z,100060.09
2023-02-17T07:50:28.704Z,100068.06
2023-02-17T07:52:55.758Z,100054.09
2023-02-17T07:55:22.652Z,100064.22
2023-02-17T07:57:49.817Z,100057.63
2023-02-17T08:00:17.394Z,100056.47
2023-02-17T08:02:44.498Z,100064.66
2023-02-17T08:05:11.767Z,100066.34
2023-02-17T08:07:38.724Z,100073.63
2023-02-17T08:10:24.905Z,100092.28
2023-02-17T08:13:10.408Z,100091.94
2023-02-17T08:15:37.653Z,100092.47
2023-02-17T08:18:06.516Z,100082.00
2023-02-17T08:20:35.209Z,100086.81
2023-02-17T08:23:03.721Z,100089.03
2023-02-17T08:25:35.670Z,100093.25
2023-02-17T08:28:04.953Z,100104.44
2023-02-17T08:30:32.172Z,100102.72
2023-02-17T08:32:59.869Z,100093.09
2023-02-17T08:35:28.235Z,100086.59
2023-02-17T08:37:55.581Z,100083.38
2023-02-17T08:40:23.010Z,100080.94
2023-02-17T08:42:50.042Z,100085.81
2023-02-17T08:45:17.307Z,100081.19
2023-02-17T08:47:44.177Z,100088.88
2023-02-17T08:50:16.426Z,100080.34
2023-02-17T08:52:43.286Z,100093.94
2023-02-17T08:55:10.595Z,100083.44
2023-02-17T08:57:37.492Z,100082.69
2023-02-17T09:00:08.639Z,100088.16
2023-02-17T09:02:37.604Z,100082.97
2023-02-17T09:05:06.087Z,100074.09
2023-02-17T09:07:32.990Z,100083.84
2023-02-17T09:10:01.025Z,100083.94
2023-02-17T09:12:27.886Z,100066.50
2023-02-17T09:14:54.990Z,100062.91
2023-02-17T09:17:21.980Z,100066.53
2023-02-17T09:19:49.026Z,100074.50
2023-02-17T09:22:30.833Z,100080.66
2023-02-17T09:24:58.688Z,100065.97
2023-02-17T09:27:25.716Z,100083.00
2023-02-17T09:29:52.665Z,100085.09
2023-02-17T09:32:20.463Z,100089.38
2023-02-17T09:34:53.320Z,100078.56
2023-02-17T09:37:21.984Z,100092.56
2023-02-17T09:39:49.139Z,100071.25
2023-02-17T09:42:25.700Z,100082.16
2023-02-17T09:45:18.452Z,100065.00
2023-02-17T09:47:50.781Z,100066.47
2023-02-17T09:50:21.871Z,100065.97
2023-02-17T09:53:33.716Z,100042.06
2023-02-17T09:56:03.094Z,100052.41
2023-02-17T09:58:30.034Z,100066.19
2023-02-17T10:01:00.636Z,100066.31
2023-02-17T10:03:37.689Z,100063.28
2023-02-17T10:06:13.994Z,100072.13
2023-02-17T10:09:13.019Z,100069.38
2023-02-17T10:11:44.219Z,100058.44
2023-02-17T10:14:33.110Z,100051.03
2023-02-17T10:17:17.668Z,100059.44
2023-02-17T10:19:54.905Z,100043.72
2023-02-17T10:22:24.445Z,100043.25
2023-02-17T10:24:51.684Z,100026.00
2023-02-17T10:27:35.732Z,100019.34
2023-02-17T10:30:20.310Z,100030.59
2023-02-17T10:33:15.245Z,100033.63
2023-02-17T10:35:56.148Z,100031.75
2023-02-17T10:39:07.743Z,100028.56
2023-02-17T10:41:38.212Z,100000.50
2023-02-17T10:44:15.386Z,100023.84
2023-02-17T10:46:43.516Z,100017.41
2023-02-17T10:49:31.469Z,100002.91
2023-02-17T10:52:06.349Z,100007.63
2023-02-17T10:54:38.656Z,100014.44
2023-02-17T10:57:11.249Z,100000.13
2023-02-17T10:59:44.332Z,99992.75
2023-02-17T11:02:33.487Z,99993.88
2023-02-17T11:05:00.572Z,99973.31
2023-02-17T11:07:34.848Z,99978.44
2023-02-17T11:10:04.821Z,99965.88
2023-02-17T11:12:41.521Z,99976.00
2023-02-17T11:15:20.651Z,99974.75
2023-02-17T11:17:48.091Z,99978.75
2023-02-17T11:20:15.301Z,99981.47
2023-02-17T11:22:45.882Z,99982.78
2023-02-17T11:25:26.476Z,99976.44
2023-02-17T11:27:56.650Z,99969.09
2023-02-17T11:30:24.962Z,99976.59
2023-02-17T11:32:52.079Z,99968.28
2023-02-17T11:35:32.894Z,99964.31
2023-02-17T11:38:10.542Z,99956.72
2023-02-17T11:40:37.677Z,99966.47
2023-02-17T11:43:06.062Z,99966.06
2023-02-17T11:45:43.021Z,99973.81
2023-02-17T11:48:40.042Z,99962.66
2023-02-17T11:51:40.700Z,99966.38
2023-02-17T11:54:19.212Z,99967.25
2023-02-17T11:57:30.779Z,99962.13
2023-02-17T12:00:19.107Z,99966.88
2023-02-17T12:03:09.914Z,99964.28
2023-02-17T12:06:18.509Z,99944.72
2023-02-17T12:08:57.474Z,99965.88
2023-02-17T12:11:37.550Z,99958.22
2023-02-17T12:14:42.019Z,99963.25
2023-02-17T12:17:37.975Z,99960.63
2023-02-17T12:20:28.136Z,99954.69
2023-02-17T12:23:10.568Z,99965.34
2023-02-17T12:25:48.863Z,99939.72
2023-02-17T12:28:24.776Z,99955.66
2023-02-17T12:31:13.494Z,99960.72
2023-02-17T12:34:20.185Z,99954.19
2023-02-17T12:36:50.446Z,99943.44
2023-02-17T12:39:43.078Z,99951.19
2023-02-17T12:42:25.075Z,99944.22
2023-02-17T12:45:03.553Z,99937.50
2023-02-17T12:47:53.741Z,99940.13
2023-02-17T12:51:03.157Z,99951.56
2023-02-17T12:53:48.142Z,99951.44
2023-02-17T12:56:28.482Z,99950.91
2023-02-17T12:58:59.352Z,99946.34
2023-02-17T13:01:31.394Z,99913.34
2023-02-17T13:04:02.704Z,99942.69
2023-02-17T13:06:29.554Z,99952.94
2023-02-17T13:09:01.796Z,99950.31
2023-02-17T13:11:34.987Z,99965.50
2023-02-17T13:14:29.360Z,99951.00
2023-02-17T13:16:56.202Z,99947.91
2023-02-17T13:19:31.801Z,99948.88
2023-02-17T13:22:02.368Z,99957.34
2023-02-17T13:24:50.841Z,99960.78
2023-02-17T13:27:22.582Z,99951.00
2023-02-17T13:30:22.015Z,99950.50
2023-02-17T13:33:04.296Z,99936.00
2023-02-17T13:35:34.929Z,99938.28
2023-02-17T13:38:01.775Z,99940.72
2023-02-17T13:40:41.229Z,99932.09
2023-02-17T13:43:14.988Z,99935.84
2023-02-17T13:46:15.683Z,99933.06
2023-02-17T13:48:42.632Z,99927.50
2023-02-17T13:51:25.649Z,99922.81
2023-02-17T13:53:53.882Z,99935.19
2023-02-17T13:56:31.139Z,99922.31
2023-02-17T13:59:18.037Z,99924.09
2023-02-17T14:01:46.583Z,99920.06
2023-02-17T14:04:22.505Z,99933.06
2023-02-17T14:06:50.132Z,99937.09
2023-02-17T14:09:30.720Z,99933.38
2023-02-17T14:11:59.092Z,99942.47
2023-02-17T14:14:35.050Z,99898.44
2023-02-17T14:17:05.158Z,99945.88
2023-02-17T14:19:47.335Z,99921.25
2023-02-17T14:22:35.328Z,99938.06
2023-02-17T14:25:13.109Z,99917.34
2023-02-17T14:27:45.091Z,99926.72
2023-02-17T14:30:36.135Z,99923.97
2023-02-17T14:33:20.076Z,99896.13
2023-02-17T14:36:02.939Z,99935.84
2023-02-17T14:38:35.296Z,99935.03
2023-02-17T14:41:02.266Z,99923.25
2023-02-17T14:43:29.881Z,99927.66
2023-02-17T14:45:56.745Z,99942.72
2023-02-17T14:48:27.383Z,99940.66
2023-02-17T14:50:57.277Z,99929.09
2023-02-17T14:53:32.961Z,99941.59
2023-02-17T14:56:26.625Z,99945.44
2023-02-17T14:58:54.046Z,99940.53
2023-02-17T15:01:23.533Z,99942.28
2023-02-17T15:03:50.597Z,99936.75
2023-02-17T15:06:20.989Z,99939.78
2023-02-17T15:08:51.649Z,99944.16
2023-02-17T15:11:30.429Z,99944.28
2023-02-17T15:13:57.792Z,99939.69
2023-02-17T15:16:24.757Z,99941.53
2023-02-17T15:18:51.792Z,99948.38
2023-02-17T15:21:24.340Z,99932.59
2023-02-17T15:23:51.626Z,99951.03
2023-02-17T15:26:21.538Z,99945.22
2023-02-17T15:28:48.598Z,99945.06
2023-02-17T15:31:16.769Z,99949.56
2023-02-17T15:33:47.645Z,99935.97
2023-02-17T15:36:17.725Z,99942.38
2023-02-17T15:38:44.479Z,99930.34
2023-02-17T15:41:18.452Z,99937.06
2023-02-17T15:43:46.974Z,99946.34
2023-02-17T15:46:16.844Z,99946.84
2023-02-17T15:48:52.303Z,99947.16
2023-02-17T15:51:22.546Z,99965.88
2023-02-17T15:53:49.565Z,99956.38
2023-02-17T15:56:20.613Z,99957.66
2023-02-17T15:58:49.054Z,99965.25
2023-02-17T16:01:34.715Z,99969.06
2023-02-17T16:04:01.810Z,99959.72
2023-02-17T16:06:29.535Z,99973.84
2023-02-17T16:08:58.812Z,99975.56
2023-02-17T16:11:32.713Z,99986.19
2023-02-17T16:14:01.230Z,99979.19
2023-02-17T16:16:36.162Z,99979.38
2023-02-17T16:19:08.829Z,99990.41
2023-02-17T16:21:35.913Z,99987.59
2023-02-17T16:24:02.678Z,99984.41
2023-02-17T16:26:34.493Z,99993.47
2023-02-17T16:29:02.973Z,99988.38
2023-02-17T16:31:32.592Z,100001.53
2023-02-17T16:34:00.546Z,100002.44
2023-02-17T16:36:32.542Z,100005.88
2023-02-17T16:39:02.708Z,100006.19
2023-02-17T16:41:29.640Z,100014.22
2023-02-17T16:43:56.478Z,100008.03
2023-02-17T16:46:29.768Z,99992.00
2023-02-17T16:48:58.019Z,100006.78
2023-02-17T16:51:25.142Z,100011.81
2023-02-17T16:53:52.590Z,99998.69
2023-02-17T16:56:34.666Z,100013.25
2023-02-17T16:59:01.633Z,100006.75
2023-02-17T17:01:28.590Z,100016.38
2023-02-17T17:03:55.490Z,100012.63
2023-02-17T17:06:25.922Z,100014.84
2023-02-17T17:08:53.667Z,100007.75
2023-02-17T17:11:23.834Z,99998.22
2023-02-17T17:13:50.838Z,100012.47
2023-02-17T17:16:24.863Z,100019.88
2023-02-17T17:18:51.813Z,100018.53
2023-02-17T17:21:19.596Z,100013.91
2023-02-17T17:23:47.548Z,100015.00
2023-02-17T17:26:18.897Z,100017.75
2023-02-17T17:28:48.317Z,100023.31
2023-02-17T17:31:15.430Z,100016.75
2023-02-17T17:33:42.513Z,100019.47
2023-02-17T17:36:24.405Z,100023.88
2023-02-17T17:38:53.454Z,100022.78
2023-02-17T17:41:20.875Z,100008.28
2023-02-17T17:43:49.026Z,100017.84
2023-02-17T17:46:19.320Z,100021.13
2023-02-17T17:48:47.410Z,100016.22
2023-02-17T17:51:17.422Z,100030.44
2023-02-17T17:53:44.687Z,100034.28
2023-02-17T17:56:23.815Z,100028.78
2023-02-17T17:58:51.290Z,100034.81
2023-02-17T18:01:20.343Z,100021.41
2023-02-17T18:03:48.387Z,100029.06
2023-02-17T18:06:21.635Z,100035.09
2023-02-17T18:08:50.532Z,100034.53
2023-02-17T18:11:19.895Z,100020.56
2023-02-17T18:13:49.814Z,100033.41
2023-02-17T18:16:17.139Z,100029.28
2023-02-17T18:18:44.069Z,100042.66
2023-02-17T18:21:11.067Z,100038.53
2023-02-17T18:23:38.057Z,100037.97
2023-02-17T18:26:05.302Z,100026.47
2023-02-17T18:28:33.892Z,100053.19
2023-02-17T18:31:07.730Z,100047.13
2023-02-17T18:33:34.699Z,100047.13
2023-02-17T18:36:23.223Z,100056.94
2023-02-17T18:38:50.617Z,100053.31
2023-02-17T18:41:19.267Z,100044.81
2023-02-17T18:43:46.470Z,100040.41
2023-02-17T18:46:13.597Z,100032.69
2023-02-17T18:48:40.432Z,100053.75
2023-02-17T18:51:13.331Z,100046.84
2023-02-17T18:53:41.288Z,100056.06
2023-02-17T18:56:20.110Z,100073.25
2023-02-17T18:58:48.281Z,100072.97
2023-02-17T19:01:22.435Z,100070.75
2023-02-17T19:03:49.490Z,100054.34
2023-02-17T19:06:20.457Z,100070.75
2023-02-17T19:08:47.990Z,100069.88
2023-02-17T19:11:18.003Z,100065.81
2023-02-17T19:13:45.258Z,100056.94
2023-02-17T19:16:15.273Z,100084.91
2023-02-17T19:18:43.570Z,100067.69
2023-02-17T19:21:11.023Z,100057.25
2023-02-17T19:23:38.910Z,100075.25
2023-02-17T19:26:08.001Z,100062.41
2023-02-17T19:28:36.680Z,100051.97
2023-02-17T19:31:09.472Z,100061.31
2023-02-17T19:33:37.082Z,100064.09
2023-02-17T19:36:09.074Z,100048.41
2023-02-17T19:38:37.085Z,100064.03
2023-02-17T19:41:05.648Z,100060.75
2023-02-17T19:43:32.740Z,100037.00
2023-02-17T19:45:59.720Z,100050.84
2023-02-17T19:48:26.772Z,100034.13
2023-02-17T19:51:00.719Z,100032.41
2023-02-17T19:53:27.971Z,100047.50
2023-02-17T19:55:54.777Z,100052.44
2023-02-17T19:58:21.608Z,100038.53
2023-02-17T20:00:48.433Z,100040.97
2023-02-17T20:03:15.236Z,100036.28
2023-02-17T20:05:42.655Z,100026.13
2023-02-17T20:08:09.516Z,100032.75
2023-02-17T20:10:39.446Z,100024.97
2023-02-17T20:13:06.671Z,100019.28
2023-02-17T20:15:33.560Z,100011.66
2023-02-17T20:18:00.424Z,100025.94
2023-02-17T20:20:27.275Z,100015.81
2023-02-17T20:22:54.079Z,100016.16
2023-02-17T20:25:21.019Z,100015.34
2023-02-17T20:27:47.844Z,100021.66
2023-02-17T20:30:15.049Z,100016.50
2023-02-17T20:32:41.890Z,100011.28
2023-02-17T20:35:11.174Z,100001.72
2023-02-17T20:37:38.086Z,100004.75
2023-02-17T20:40:05.462Z,100008.63
2023-02-17T20:42:32.494Z,100018.25
2023-02-17T20:44:59.326Z,99999.72
2023-02-17T20:47:26.117Z,100015.31
2023-02-17T20:49:53.021Z,99997.22
2023-02-17T20:52:19.818Z,100012.44
2023-02-17T20:54:46.616Z,100013.00
2023-02-17T20:57:15.677Z,100014.84
2023-02-17T20:59:42.814Z,100026.59
2023-02-17T21:02:11.171Z,100033.38
2023-02-17T21:04:38.064Z,100025.97
2023-02-17T21:07:04.917Z,100031.22
2023-02-17T21:09:32.002Z,100006.66
2023-02-17T21:11:58.878Z,100020.09
2023-02-17T21:14:25.662Z,100021.22
2023-02-17T21:16:52.566Z,100018.50
2023-02-17T21:19:19.607Z,100022.91
2023-02-17T21:21:46.800Z,100016.94
2023-02-17T21:24:14.003Z,100000.84
2023-02-17T21:26:41.162Z,100006.00
2023-02-17T21:29:08.451Z,99998.31
2023-02-17T21:31:37.089Z,100005.34
2023-02-17T21:34:04.851Z,99980.88
2023-02-17T21:36:31.676Z,99993.44
2023-02-17T21:38:59.124Z,99987.91
2023-02-17T21:41:27.806Z,100000.41
2023-02-17T21:44:13.657Z,99987.56
2023-02-17T21:46:43.902Z,99994.03
2023-02-17T21:49:11.660Z,99984.09
2023-02-17T21:51:39.834Z,99988.75
2023-02-17T21:54:07.278Z,99984.06
2023-02-17T21:56:34.305Z,99977.19
2023-02-17T21:59:01.059Z,99970.91
2023-02-17T22:01:28.664Z,99982.69
2023-02-17T22:03:57.657Z,99973.91
2023-02-17T22:06:27.781Z,99973.09
2023-02-17T22:08:55.288Z,99980.41
2023-02-17T22:11:26.762Z,99977.31
2023-02-17T22:14:01.465Z,99972.94
2023-02-17T22:16:33.836Z,99985.19
2023-02-17T22:19:01.441Z,99974.53
2023-02-17T22:21:28.980Z,99967.91
2023-02-17T22:23:57.924Z,99958.56
2023-02-17T22:26:26.092Z,99967.56
2023-02-17T22:28:54.285Z,99970.03
2023-02-17T22:31:24.927Z,99959.38
2023-02-17T22:33:51.861Z,99967.56
2023-02-17T22:36:25.194Z,99970.84
2023-02-17T22:38:52.637Z,99964.00
2023-02-17T22:41:23.041Z,99949.94
2023-02-17T22:43:50.847Z,99956.88
2023-02-17T22:46:19.981Z,99934.97
2023-02-17T22:48:49.134Z,99952.03
2023-02-17T22:51:19.495Z,99956.69
2023-02-17T22:53:46.751Z,99941.38
2023-02-17T22:56:13.969Z,99945.84
2023-02-17T22:58:40.975Z,99935.47
2023-02-17T23:01:12.698Z,99938.28
2023-02-17T23:03:39.997Z,99935.09
2023-02-17T23:06:10.469Z,99926.91
2023-02-17T23:08:37.750Z,99926.13
2023-02-17T23:11:06.389Z,99919.34
2023-02-17T23:13:33.506Z,99916.03
2023-02-17T23:16:00.354Z,99912.91
2023-02-17T23:18:30.983Z,99920.81
2023-02-17T23:20:57.989Z,99911.25
2023-02-17T23:23:24.899Z,99902.25
2023-02-17T23:25:54.454Z,99891.34
2023-02-17T23:28:23.674Z,99915.38
2023-02-17T23:30:50.672Z,99903.19
2023-02-17T23:33:19.842Z,99913.03
2023-02-17T23:35:47.782Z,99916.00
2023-02-17T23:38:17.374Z,99902.34
2023-02-17T23:40:51.169Z,99889.25
2023-02-17T23:43:19.559Z,99893.69
2023-02-17T23:45:46.577Z,99906.84
2023-02-17T23:48:13.609Z,99893.19
2023-02-17T23:50:40.865Z,99889.13
2023-02-17T23:53:08.686Z,99885.34
2023-02-17T23:55:35.643Z,99880.41
2023-02-17T23:58:02.507Z,99870.88
